sensor_id;sensor_type;location;lat;lon;timestamp;pressure;altitude;pressure_sealevel;temperature;humidity
41202;BME280;26936;50.524;8.684;2022-08-19T00:01:45;98988.28;;;19.97;83.00
41202;BME280;26936;50.524;8.684;2022-08-19T00:04:12;98984.88;;;19.99;82.96
41202;BME280;26936;50.524;8.684;2022-08-19T00:06:40;98987.00;;;19.98;83.20
41202;BME280;26936;50.524;8.684;2022-08-19T00:09:09;98999.72;;;19.97;83.30
41202;BME280;26936;50.524;8.684;2022-08-19T00:11:35;99002.03;;;19.99;83.00
41202;BME280;26936;50.524;8.684;2022-08-19T00:14:03;98993.47;;;19.99;83.16
41202;BME280;26936;50.524;8.684;2022-08-19T00:16:29;98993.47;;;19.99;83.50
41202;BME280;26936;50.524;8.684;2022-08-19T00:18:55;98980.22;;;19.96;83.63
41202;BME280;26936;50.524;8.684;2022-08-19T00:21:21;98994.25;;;19.94;83.89
41202;BME280;26936;50.524;8.684;2022-08-19T00:23:46;98988.53;;;19.94;84.01
41202;BME280;26936;50.524;8.684;2022-08-19T00:26:12;98984.13;;;19.98;83.97
41202;BME280;26936;50.524;8.684;2022-08-19T00:28:37;98991.38;;;19.99;84.43
41202;BME280;26936;50.524;8.684;2022-08-19T00:31:08;98991.13;;;20.03;84.24
41202;BME280;26936;50.524;8.684;2022-08-19T00:33:34;98990.59;;;20.04;84.19
41202;BME280;26936;50.524;8.684;2022-08-19T00:36:00;98989.53;;;20.07;84.03
41202;BME280;26936;50.524;8.684;2022-08-19T00:38:26;98985.63;;;20.10;83.83
41202;BME280;26936;50.524;8.684;2022-08-19T00:40:51;98977.59;;;20.14;83.64
41202;BME280;26936;50.524;8.684;2022-08-19T00:43:22;98974.44;;;20.18;82.74
41202;BME280;26936;50.524;8.684;2022-08-19T00:45:47;98976.47;;;20.23;82.63
41202;BME280;26936;50.524;8.684;2022-08-19T00:48:15;98969.94;;;20.28;81.97
41202;BME280;26936;50.524;8.684;2022-08-19T00:50:41;98970.19;;;20.30;82.09
41202;BME280;26936;50.524;8.684;2022-08-19T00:53:09;98956.94;;;20.33;81.86
41202;BME280;26936;50.524;8.684;2022-08-19T00:55:36;98951.44;;;20.35;81.67
41202;BME280;26936;50.524;8.684;2022-08-19T00:58:07;98959.50;;;20.36;81.55
41202;BME280;26936;50.524;8.684;2022-08-19T01:00:35;98967.25;;;20.41;81.30
41202;BME280;26936;50.524;8.684;2022-08-19T01:03:08;98962.56;;;20.44;81.06
41202;BME280;26936;50.524;8.684;2022-08-19T01:05:34;98965.69;;;20.46;81.10
41202;BME280;26936;50.524;8.684;2022-08-19T01:08:02;98968.03;;;20.47;80.82
41202;BME280;26936;50.524;8.684;2022-08-19T01:10:31;98969.31;;;20.46;80.90
41202;BME280;26936;50.524;8.684;2022-08-19T01:12:59;98955.25;;;20.48;80.81
41202;BME280;26936;50.524;8.684;2022-08-19T01:15:30;98952.41;;;20.48;80.91
41202;BME280;26936;50.524;8.684;2022-08-19T01:17:58;98941.50;;;20.47;80.83
41202;BME280;26936;50.524;8.684;2022-08-19T01:20:24;98935.25;;;20.48;80.78
41202;BME280;26936;50.524;8.684;2022-08-19T01:22:52;98930.06;;;20.47;80.81
41202;BME280;26936;50.524;8.684;2022-08-19T01:25:22;98930.84;;;20.47;80.83
41202;BME280;26936;50.524;8.684;2022-08-19T01:27:49;98934.22;;;20.46;80.88
41202;BME280;26936;50.524;8.684;2022-08-19T01:30:23;98938.88;;;20.49;80.97
41202;BME280;26936;50.524;8.684;2022-08-19T01:32:49;98933.16;;;20.49;80.67
41202;BME280;26936;50.524;8.684;2022-08-19T01:35:15;98931.84;;;20.50;80.75
41202;BME280;26936;50.524;8.684;2022-08-19T01:37:57;98934.44;;;20.48;80.63
41202;BME280;26936;50.524;8.684;2022-08-19T01:40:27;98931.59;;;20.48;80.67
41202;BME280;26936;50.524;8.684;2022-08-19T01:42:53;98930.06;;;20.47;80.67
41202;BME280;26936;50.524;8.684;2022-08-19T01:45:20;98932.13;;;20.46;80.80
41202;BME280;26936;50.524;8.684;2022-08-19T01:47:46;98922.53;;;20.44;80.80
41202;BME280;26936;50.524;8.684;2022-08-19T01:50:12;98922.03;;;20.40;81.02
41202;BME280;26936;50.524;8.684;2022-08-19T01:52:40;98925.44;;;20.38;81.22
41202;BME280;26936;50.524;8.684;2022-08-19T01:55:08;98926.50;;;20.35;81.10
41202;BME280;26936;50.524;8.684;2022-08-19T01:57:34;98923.44;;;20.28;81.21
41202;BME280;26936;50.524;8.684;2022-08-19T02:00:00;98935.44;;;20.20;81.49
41202;BME280;26936;50.524;8.684;2022-08-19T02:02:27;98942.75;;;20.16;81.73
41202;BME280;26936;50.524;8.684;2022-08-19T02:04:53;98942.25;;;20.06;82.15
41202;BME280;26936;50.524;8.684;2022-08-19T02:07:19;98941.25;;;19.98;82.27
41202;BME280;26936;50.524;8.684;2022-08-19T02:09:46;98950.38;;;19.91;82.65
41202;BME280;26936;50.524;8.684;2022-08-19T02:12:12;98941.28;;;19.87;83.21
41202;BME280;26936;50.524;8.684;2022-08-19T02:14:37;98937.94;;;19.83;83.84
41202;BME280;26936;50.524;8.684;2022-08-19T02:17:03;98936.69;;;19.79;84.40
41202;BME280;26936;50.524;8.684;2022-08-19T02:19:28;98939.53;;;19.79;84.64
41202;BME280;26936;50.524;8.684;2022-08-19T02:21:53;98935.63;;;19.76;84.52
41202;BME280;26936;50.524;8.684;2022-08-19T02:24:19;98925.25;;;19.73;84.48
41202;BME280;26936;50.524;8.684;2022-08-19T02:26:44;98919.81;;;19.70;84.59
41202;BME280;26936;50.524;8.684;2022-08-19T02:31:34;98915.16;;;19.61;85.26
41202;BME280;26936;50.524;8.684;2022-08-19T02:34:02;98917.03;;;19.53;85.22
41202;BME280;26936;50.524;8.684;2022-08-19T02:36:27;98919.91;;;19.48;85.32
41202;BME280;26936;50.524;8.684;2022-08-19T02:38:53;98942.50;;;19.40;86.18
41202;BME280;26936;50.524;8.684;2022-08-19T02:41:28;98942.03;;;19.36;86.58
41202;BME280;26936;50.524;8.684;2022-08-19T02:43:58;98959.38;;;19.27;88.13
41202;BME280;26936;50.524;8.684;2022-08-19T02:46:26;98957.09;;;19.20;88.06
41202;BME280;26936;50.524;8.684;2022-08-19T02:48:54;98964.06;;;19.19;88.13
41202;BME280;26936;50.524;8.684;2022-08-19T02:51:27;98964.59;;;19.12;88.40
41202;BME280;26936;50.524;8.684;2022-08-19T02:53:53;98972.94;;;19.10;88.40
41202;BME280;26936;50.524;8.684;2022-08-19T02:56:20;98975.78;;;19.05;88.74
41202;BME280;26936;50.524;8.684;2022-08-19T02:58:46;98975.78;;;18.99;88.89
41202;BME280;26936;50.524;8.684;2022-08-19T03:01:21;98974.47;;;18.94;88.58
41202;BME280;26936;50.524;8.684;2022-08-19T03:03:47;98965.16;;;18.88;89.02
41202;BME280;26936;50.524;8.684;2022-08-19T03:06:14;98975.50;;;18.86;88.82
41202;BME280;26936;50.524;8.684;2022-08-19T03:08:42;98968.78;;;18.83;88.80
41202;BME280;26936;50.524;8.684;2022-08-19T03:11:23;98981.75;;;18.79;89.14
41202;BME280;26936;50.524;8.684;2022-08-19T03:13:50;98972.94;;;18.77;89.49
41202;BME280;26936;50.524;8.684;2022-08-19T03:16:17;98978.38;;;18.75;89.73
41202;BME280;26936;50.524;8.684;2022-08-19T03:18:43;98978.91;;;18.68;90.23
41202;BME280;26936;50.524;8.684;2022-08-19T03:21:08;98973.22;;;18.68;90.32
41202;BME280;26936;50.524;8.684;2022-08-19T03:23:33;98970.59;;;18.64;90.17
41202;BME280;26936;50.524;8.684;2022-08-19T03:26:03;98955.81;;;18.60;90.32
41202;BME280;26936;50.524;8.684;2022-08-19T03:28:30;98961.53;;;18.60;90.12
41202;BME280;26936;50.524;8.684;2022-08-19T03:31:07;98977.59;;;18.58;90.28
41202;BME280;26936;50.524;8.684;2022-08-19T03:33:34;98976.78;;;18.52;90.81
41202;BME280;26936;50.524;8.684;2022-08-19T03:38:34;98979.13;;;18.42;91.54
41202;BME280;26936;50.524;8.684;2022-08-19T03:41:05;98977.78;;;18.38;91.69
41202;BME280;26936;50.524;8.684;2022-08-19T03:43:33;98973.66;;;18.33;92.54
41202;BME280;26936;50.524;8.684;2022-08-19T03:46:20;98982.44;;;18.30;92.73
41202;BME280;26936;50.524;8.684;2022-08-19T03:48:47;98979.31;;;18.28;92.88
41202;BME280;26936;50.524;8.684;2022-08-19T03:53:50;99000.03;;;18.17;92.85
41202;BME280;26936;50.524;8.684;2022-08-19T03:56:16;98986.31;;;18.16;93.29
41202;BME280;26936;50.524;8.684;2022-08-19T03:58:42;98987.59;;;18.09;93.43
41202;BME280;26936;50.524;8.684;2022-08-19T04:01:09;98989.38;;;18.07;93.91
41202;BME280;26936;50.524;8.684;2022-08-19T04:03:35;98986.78;;;18.03;94.02
41202;BME280;26936;50.524;8.684;2022-08-19T04:06:16;98986.50;;;18.01;94.28
41202;BME280;26936;50.524;8.684;2022-08-19T04:08:43;98987.00;;;17.94;94.65
41202;BME280;26936;50.524;8.684;2022-08-19T04:11:12;98989.84;;;17.94;94.88
41202;BME280;26936;50.524;8.684;2022-08-19T04:13:38;98987.53;;;17.93;95.07
41202;BME280;26936;50.524;8.684;2022-08-19T04:16:03;98985.44;;;17.93;96.50
41202;BME280;26936;50.524;8.684;2022-08-19T04:18:30;98987.78;;;17.89;96.89
41202;BME280;26936;50.524;8.684;2022-08-19T04:20:56;98993.97;;;17.88;96.72
41202;BME280;26936;50.524;8.684;2022-08-19T04:23:22;98999.91;;;17.84;97.57
41202;BME280;26936;50.524;8.684;2022-08-19T04:25:48;99001.69;;;17.82;97.56
41202;BME280;26936;50.524;8.684;2022-08-19T04:28:13;98990.31;;;17.82;97.67
41202;BME280;26936;50.524;8.684;2022-08-19T04:30:44;98992.69;;;17.83;97.58
41202;BME280;26936;50.524;8.684;2022-08-19T04:33:12;99001.47;;;17.80;97.27
41202;BME280;26936;50.524;8.684;2022-08-19T04:35:40;99001.47;;;17.80;97.61
41202;BME280;26936;50.524;8.684;2022-08-19T04:38:06;98996.00;;;17.82;97.50
41202;BME280;26936;50.524;8.684;2022-08-19T04:40:32;98993.66;;;17.80;97.00
41202;BME280;26936;50.524;8.684;2022-08-19T04:43:16;98994.19;;;17.79;97.56
41202;BME280;26936;50.524;8.684;2022-08-19T04:45:43;98994.97;;;17.79;97.75
41202;BME280;26936;50.524;8.684;2022-08-19T04:48:08;98998.59;;;17.80;97.49
41202;BME280;26936;50.524;8.684;2022-08-19T04:50:33;98991.34;;;17.79;97.63
41202;BME280;26936;50.524;8.684;2022-08-19T04:52:59;98998.38;;;17.83;97.43
41202;BME280;26936;50.524;8.684;2022-08-19T04:55:24;99005.63;;;17.84;97.77
41202;BME280;26936;50.524;8.684;2022-08-19T04:57:55;99006.66;;;17.87;97.77
41202;BME280;26936;50.524;8.684;2022-08-19T05:00:21;99012.88;;;17.91;98.06
41202;BME280;26936;50.524;8.684;2022-08-19T05:02:46;99014.72;;;17.94;97.85
41202;BME280;26936;50.524;8.684;2022-08-19T05:05:11;99014.47;;;17.97;98.42
41202;BME280;26936;50.524;8.684;2022-08-19T05:07:37;99020.16;;;17.97;97.64
41202;BME280;26936;50.524;8.684;2022-08-19T05:10:04;99014.50;;;18.03;97.83
41202;BME280;26936;50.524;8.684;2022-08-19T05:12:30;99017.13;;;18.12;97.43
41202;BME280;26936;50.524;8.684;2022-08-19T05:14:57;99014.81;;;18.16;97.11
41202;BME280;26936;50.524;8.684;2022-08-19T05:17:22;99011.72;;;18.25;96.87
41202;BME280;26936;50.524;8.684;2022-08-19T05:19:48;99017.69;;;18.32;96.54
41202;BME280;26936;50.524;8.684;2022-08-19T05:22:31;99018.28;;;18.42;96.38
41202;BME280;26936;50.524;8.684;2022-08-19T05:24:58;99017.50;;;18.47;96.52
41202;BME280;26936;50.524;8.684;2022-08-19T05:27:23;99019.88;;;18.59;95.91
41202;BME280;26936;50.524;8.684;2022-08-19T05:29:48;99018.31;;;18.69;95.79
41202;BME280;26936;50.524;8.684;2022-08-19T05:32:14;99015.47;;;18.80;95.24
41202;BME280;26936;50.524;8.684;2022-08-19T05:34:39;99002.25;;;18.94;94.72
41202;BME280;26936;50.524;8.684;2022-08-19T05:37:05;99003.00;;;19.06;93.98
41202;BME280;26936;50.524;8.684;2022-08-19T05:39:35;98997.53;;;19.19;93.13
41202;BME280;26936;50.524;8.684;2022-08-19T05:42:04;99009.25;;;19.37;92.32
41202;BME280;26936;50.524;8.684;2022-08-19T05:44:33;99005.31;;;19.62;90.89
41202;BME280;26936;50.524;8.684;2022-08-19T05:46:59;98998.13;;;20.02;88.82
41202;BME280;26936;50.524;8.684;2022-08-19T05:49:25;99001.59;;;20.41;84.83
41202;BME280;26936;50.524;8.684;2022-08-19T05:51:52;99002.22;;;21.04;82.51
41202;BME280;26936;50.524;8.684;2022-08-19T05:54:18;99005.44;;;21.73;79.27
41202;BME280;26936;50.524;8.684;2022-08-19T05:56:44;99006.16;;;22.40;75.41
41202;BME280;26936;50.524;8.684;2022-08-19T05:59:14;99007.41;;;22.82;73.02
41202;BME280;26936;50.524;8.684;2022-08-19T06:01:43;99019.19;;;23.29;70.08
41202;BME280;26936;50.524;8.684;2022-08-19T06:04:10;99012.41;;;24.10;67.35
41202;BME280;26936;50.524;8.684;2022-08-19T06:06:37;99017.34;;;24.49;66.02
41202;BME280;26936;50.524;8.684;2022-08-19T06:09:06;99019.16;;;25.06;63.85
41202;BME280;26936;50.524;8.684;2022-08-19T06:11:43;99014.88;;;25.20;62.13
41202;BME280;26936;50.524;8.684;2022-08-19T06:14:11;99020.91;;;25.29;61.52
41202;BME280;26936;50.524;8.684;2022-08-19T06:16:39;99022.78;;;25.68;60.26
41202;BME280;26936;50.524;8.684;2022-08-19T06:19:07;99017.59;;;25.95;59.21
41202;BME280;26936;50.524;8.684;2022-08-19T06:21:34;99022.84;;;26.32;58.13
41202;BME280;26936;50.524;8.684;2022-08-19T06:24:03;99025.44;;;26.50;57.17
41202;BME280;26936;50.524;8.684;2022-08-19T06:26:29;99037.31;;;26.83;56.42
41202;BME280;26936;50.524;8.684;2022-08-19T06:28:54;99023.50;;;27.04;55.57
41202;BME280;26936;50.524;8.684;2022-08-19T06:31:23;99031.00;;;26.92;55.13
41202;BME280;26936;50.524;8.684;2022-08-19T06:33:49;99036.16;;;27.59;53.87
41202;BME280;26936;50.524;8.684;2022-08-19T06:36:21;99047.13;;;27.60;53.01
41202;BME280;26936;50.524;8.684;2022-08-19T06:38:52;99045.75;;;27.69;52.95
41202;BME280;26936;50.524;8.684;2022-08-19T06:41:17;99056.69;;;27.18;53.67
41202;BME280;26936;50.524;8.684;2022-08-19T06:43:42;99057.53;;;27.41;53.61
41202;BME280;26936;50.524;8.684;2022-08-19T06:46:12;99053.84;;;27.48;53.51
41202;BME280;26936;50.524;8.684;2022-08-19T06:48:39;99054.03;;;27.27;53.23
41202;BME280;26936;50.524;8.684;2022-08-19T06:51:04;99054.25;;;27.52;53.50
41202;BME280;26936;50.524;8.684;2022-08-19T06:53:31;99043.44;;;27.45;53.33
41202;BME280;26936;50.524;8.684;2022-08-19T06:55:56;99042.50;;;27.42;53.34
41202;BME280;26936;50.524;8.684;2022-08-19T06:58:25;99055.03;;;27.67;52.81
41202;BME280;26936;50.524;8.684;2022-08-19T07:00:51;99059.47;;;27.46;53.46
41202;BME280;26936;50.524;8.684;2022-08-19T07:03:16;99067.28;;;27.15;53.81
41202;BME280;26936;50.524;8.684;2022-08-19T07:05:42;99061.69;;;27.17;54.27
41202;BME280;26936;50.524;8.684;2022-08-19T07:08:08;99067.06;;;26.98;54.59
41202;BME280;26936;50.524;8.684;2022-08-19T07:10:35;99063.22;;;27.18;54.54
41202;BME280;26936;50.524;8.684;2022-08-19T07:13:02;99058.28;;;27.34;53.94
41202;BME280;26936;50.524;8.684;2022-08-19T07:15:27;99063.44;;;27.20;53.84
41202;BME280;26936;50.524;8.684;2022-08-19T07:17:52;99065.91;;;26.94;54.96
41202;BME280;26936;50.524;8.684;2022-08-19T07:20:18;99070.69;;;26.99;54.38
41202;BME280;26936;50.524;8.684;2022-08-19T07:22:43;99069.91;;;26.91;54.88
41202;BME280;26936;50.524;8.684;2022-08-19T07:25:10;99070.19;;;27.23;54.07
41202;BME280;26936;50.524;8.684;2022-08-19T07:27:36;99068.53;;;27.42;53.58
41202;BME280;26936;50.524;8.684;2022-08-19T07:30:03;99064.47;;;27.45;53.56
41202;BME280;26936;50.524;8.684;2022-08-19T07:32:29;99057.31;;;27.31;52.85
41202;BME280;26936;50.524;8.684;2022-08-19T07:34:56;99063.53;;;27.88;51.98
41202;BME280;26936;50.524;8.684;2022-08-19T07:37:21;99061.88;;;28.55;50.57
41202;BME280;26936;50.524;8.684;2022-08-19T07:39:47;99068.78;;;29.06;49.15
41202;BME280;26936;50.524;8.684;2022-08-19T07:42:12;99069.06;;;29.58;47.43
41202;BME280;26936;50.524;8.684;2022-08-19T07:44:39;99062.81;;;30.10;46.59
41202;BME280;26936;50.524;8.684;2022-08-19T07:47:05;99068.56;;;30.18;45.24
41202;BME280;26936;50.524;8.684;2022-08-19T07:49:32;99062.44;;;30.48;44.12
41202;BME280;26936;50.524;8.684;2022-08-19T07:52:01;99055.44;;;30.68;44.08
41202;BME280;26936;50.524;8.684;2022-08-19T07:54:29;99054.34;;;31.07;43.10
41202;BME280;26936;50.524;8.684;2022-08-19T07:56:55;99048.22;;;30.69;43.42
41202;BME280;26936;50.524;8.684;2022-08-19T07:59:22;99053.94;;;30.94;42.61
41202;BME280;26936;50.524;8.684;2022-08-19T08:01:48;99047.97;;;31.18;42.47
41202;BME280;26936;50.524;8.684;2022-08-19T08:04:15;99057.53;;;31.02;42.48
41202;BME280;26936;50.524;8.684;2022-08-19T08:06:58;99060.91;;;30.47;43.71
41202;BME280;26936;50.524;8.684;2022-08-19T08:09:44;99057.53;;;30.16;43.44
41202;BME280;26936;50.524;8.684;2022-08-19T08:12:13;99058.94;;;29.42;45.36
41202;BME280;26936;50.524;8.684;2022-08-19T08:14:45;99066.31;;;29.10;46.32
41202;BME280;26936;50.524;8.684;2022-08-19T08:17:13;99082.56;;;28.51;47.67
41202;BME280;26936;50.524;8.684;2022-08-19T08:19:40;99079.91;;;28.16;48.57
41202;BME280;26936;50.524;8.684;2022-08-19T08:22:10;99076.25;;;27.85;49.33
41202;BME280;26936;50.524;8.684;2022-08-19T08:25:05;99078.16;;;27.45;50.38
41202;BME280;26936;50.524;8.684;2022-08-19T08:27:31;99084.34;;;27.49;50.58
41202;BME280;26936;50.524;8.684;2022-08-19T08:29:57;99076.25;;;27.62;50.61
41202;BME280;26936;50.524;8.684;2022-08-19T08:32:22;99081.84;;;27.60;51.21
41202;BME280;26936;50.524;8.684;2022-08-19T08:34:47;99090.34;;;28.19;49.65
41202;BME280;26936;50.524;8.684;2022-08-19T08:37:13;99086.69;;;28.11;49.60
41202;BME280;26936;50.524;8.684;2022-08-19T08:39:38;99087.66;;;27.98;49.71
41202;BME280;26936;50.524;8.684;2022-08-19T08:42:13;99084.56;;;27.96;49.67
41202;BME280;26936;50.524;8.684;2022-08-19T08:44:48;99097.66;;;27.52;50.63
41202;BME280;26936;50.524;8.684;2022-08-19T08:47:18;99096.38;;;27.17;51.45
41202;BME280;26936;50.524;8.684;2022-08-19T08:49:50;99094.25;;;27.10;52.06
41202;BME280;26936;50.524;8.684;2022-08-19T08:52:31;99090.56;;;27.02;52.18
41202;BME280;26936;50.524;8.684;2022-08-19T08:55:04;99088.41;;;27.76;51.00
41202;BME280;26936;50.524;8.684;2022-08-19T08:57:35;99092.44;;;28.26;49.60
41202;BME280;26936;50.524;8.684;2022-08-19T09:00:06;99089.59;;;28.80;48.04
41202;BME280;26936;50.524;8.684;2022-08-19T09:02:32;99089.44;;;28.71;48.12
41202;BME280;26936;50.524;8.684;2022-08-19T09:04:58;99092.59;;;28.58;48.49
41202;BME280;26936;50.524;8.684;2022-08-19T09:07:44;99102.66;;;28.57;48.74
41202;BME280;26936;50.524;8.684;2022-08-19T09:10:32;99096.69;;;28.32;49.05
41202;BME280;26936;50.524;8.684;2022-08-19T09:15:37;99092.47;;;28.11;49.95
41202;BME280;26936;50.524;8.684;2022-08-19T09:18:04;99097.66;;;27.82;50.59
41202;BME280;26936;50.524;8.684;2022-08-19T09:20:30;99084.38;;;27.94;50.39
41202;BME280;26936;50.524;8.684;2022-08-19T09:22:56;99098.66;;;27.92;50.34
41202;BME280;26936;50.524;8.684;2022-08-19T09:25:22;99081.25;;;27.69;50.19
41202;BME280;26936;50.524;8.684;2022-08-19T09:27:48;99092.44;;;27.80;50.32
41202;BME280;26936;50.524;8.684;2022-08-19T09:30:20;99087.25;;;28.02;49.32
41202;BME280;26936;50.524;8.684;2022-08-19T09:34:58;99082.41;;;28.27;48.43
41202;BME280;26936;50.524;8.684;2022-08-19T09:37:25;99074.41;;;28.57;47.58
41202;BME280;26936;50.524;8.684;2022-08-19T09:39:50;99072.00;;;28.86;47.26
41202;BME280;26936;50.524;8.684;2022-08-19T09:42:16;99067.78;;;28.72;47.01
41202;BME280;26936;50.524;8.684;2022-08-19T09:44:42;99068.03;;;28.66;47.10
41202;BME280;26936;50.524;8.684;2022-08-19T09:47:09;99068.13;;;28.29;47.74
41202;BME280;26936;50.524;8.684;2022-08-19T09:49:35;99065.34;;;29.00;47.04
41202;BME280;26936;50.524;8.684;2022-08-19T09:52:01;99062.13;;;28.89;46.77
41202;BME280;26936;50.524;8.684;2022-08-19T09:54:26;99064.06;;;28.86;46.63
41202;BME280;26936;50.524;8.684;2022-08-19T09:56:57;99057.19;;;28.74;47.04
41202;BME280;26936;50.524;8.684;2022-08-19T09:59:25;99059.00;;;28.40;47.95
41202;BME280;26936;50.524;8.684;2022-08-19T10:01:51;99057.91;;;28.82;47.08
41202;BME280;26936;50.524;8.684;2022-08-19T10:04:16;99054.19;;;29.29;45.87
41202;BME280;26936;50.524;8.684;2022-08-19T10:06:42;99060.06;;;29.95;44.35
41202;BME280;26936;50.524;8.684;2022-08-19T10:09:08;99055.69;;;30.28;42.94
41202;BME280;26936;50.524;8.684;2022-08-19T10:11:35;99053.97;;;30.60;41.98
41202;BME280;26936;50.524;8.684;2022-08-19T10:14:02;99055.53;;;30.26;42.46
41202;BME280;26936;50.524;8.684;2022-08-19T10:16:27;99049.88;;;30.28;42.36
41202;BME280;26936;50.524;8.684;2022-08-19T10:18:54;99047.72;;;30.63;41.49
41202;BME280;26936;50.524;8.684;2022-08-19T10:21:30;99045.97;;;30.50;41.46
41202;BME280;26936;50.524;8.684;2022-08-19T10:23:59;99041.16;;;30.45;41.86
41202;BME280;26936;50.524;8.684;2022-08-19T10:26:30;99037.47;;;30.79;41.18
41202;BME280;26936;50.524;8.684;2022-08-19T10:28:57;99030.78;;;31.03;41.07
41202;BME280;26936;50.524;8.684;2022-08-19T10:31:29;99036.19;;;30.73;40.72
41202;BME280;26936;50.524;8.684;2022-08-19T10:33:55;99032.94;;;30.17;41.68
41202;BME280;26936;50.524;8.684;2022-08-19T10:36:27;99032.75;;;29.98;42.26
41202;BME280;26936;50.524;8.684;2022-08-19T10:38:56;99036.97;;;29.56;42.47
41202;BME280;26936;50.524;8.684;2022-08-19T10:41:26;99040.69;;;29.49;42.56
41202;BME280;26936;50.524;8.684;2022-08-19T10:43:53;99031.97;;;29.49;42.50
41202;BME280;26936;50.524;8.684;2022-08-19T10:46:21;99044.75;;;29.21;43.04
41202;BME280;26936;50.524;8.684;2022-08-19T10:48:48;99036.31;;;29.40;42.87
41202;BME280;26936;50.524;8.684;2022-08-19T10:51:14;99036.91;;;29.63;41.92
41202;BME280;26936;50.524;8.684;2022-08-19T10:53:59;99036.88;;;29.71;41.47
41202;BME280;26936;50.524;8.684;2022-08-19T10:56:25;99028.50;;;29.50;42.28
41202;BME280;26936;50.524;8.684;2022-08-19T10:59:10;99026.34;;;29.26;42.01
41202;BME280;26936;50.524;8.684;2022-08-19T11:01:36;99029.66;;;29.22;42.18
41202;BME280;26936;50.524;8.684;2022-08-19T11:04:02;99032.50;;;28.98;43.03
41202;BME280;26936;50.524;8.684;2022-08-19T11:06:28;99030.00;;;28.94;42.87
41202;BME280;26936;50.524;8.684;2022-08-19T11:08:55;99033.94;;;28.82;43.32
41202;BME280;26936;50.524;8.684;2022-08-19T11:11:21;99025.16;;;28.65;43.38
41202;BME280;26936;50.524;8.684;2022-08-19T11:13:48;99016.75;;;28.84;43.35
41202;BME280;26936;50.524;8.684;2022-08-19T11:16:26;99020.84;;;29.62;42.19
41202;BME280;26936;50.524;8.684;2022-08-19T11:18:56;99014.91;;;30.19;41.31
41202;BME280;26936;50.524;8.684;2022-08-19T11:21:35;99016.97;;;30.60;39.98
41202;BME280;26936;50.524;8.684;2022-08-19T11:24:04;99003.72;;;30.49;39.77
41202;BME280;26936;50.524;8.684;2022-08-19T11:26:31;99009.38;;;30.13;39.94
41202;BME280;26936;50.524;8.684;2022-08-19T11:28:58;99003.63;;;29.89;40.56
41202;BME280;26936;50.524;8.684;2022-08-19T11:31:28;99005.03;;;29.56;41.00
41202;BME280;26936;50.524;8.684;2022-08-19T11:33:56;99002.50;;;29.10;42.03
41202;BME280;26936;50.524;8.684;2022-08-19T11:36:21;99001.19;;;28.96;42.08
41202;BME280;26936;50.524;8.684;2022-08-19T11:38:48;98992.94;;;29.25;42.09
41202;BME280;26936;50.524;8.684;2022-08-19T11:41:16;98978.75;;;29.54;41.59
41202;BME280;26936;50.524;8.684;2022-08-19T11:43:41;98985.38;;;29.71;41.17
41202;BME280;26936;50.524;8.684;2022-08-19T11:46:08;98985.75;;;29.75;40.64
41202;BME280;26936;50.524;8.684;2022-08-19T11:48:35;98971.16;;;30.17;39.35
41202;BME280;26936;50.524;8.684;2022-08-19T11:51:03;98970.75;;;30.37;38.61
41202;BME280;26936;50.524;8.684;2022-08-19T11:53:32;98955.59;;;30.56;38.64
41202;BME280;26936;50.524;8.684;2022-08-19T11:55:58;98956.97;;;30.55;38.32
41202;BME280;26936;50.524;8.684;2022-08-19T11:58:23;98954.84;;;30.56;38.26
41202;BME280;26936;50.524;8.684;2022-08-19T12:00:50;98961.44;;;30.39;38.36
41202;BME280;26936;50.524;8.684;2022-08-19T12:03:15;98963.38;;;30.53;38.71
41202;BME280;26936;50.524;8.684;2022-08-19T12:05:41;98963.56;;;30.21;38.84
41202;BME280;26936;50.524;8.684;2022-08-19T12:08:07;98969.44;;;30.14;39.08
41202;BME280;26936;50.524;8.684;2022-08-19T12:10:33;98972.16;;;29.78;39.06
41202;BME280;26936;50.524;8.684;2022-08-19T12:12:59;98966.03;;;29.49;39.98
41202;BME280;26936;50.524;8.684;2022-08-19T12:15:25;98959.31;;;29.22;41.10
41202;BME280;26936;50.524;8.684;2022-08-19T12:17:54;98968.81;;;29.15;41.29
41202;BME280;26936;50.524;8.684;2022-08-19T12:20:22;98971.44;;;29.28;41.46
41202;BME280;26936;50.524;8.684;2022-08-19T12:22:47;98964.63;;;29.33;41.57
41202;BME280;26936;50.524;8.684;2022-08-19T12:25:13;98960.16;;;29.57;40.22
41202;BME280;26936;50.524;8.684;2022-08-19T12:27:39;98954.53;;;29.59;39.65
41202;BME280;26936;50.524;8.684;2022-08-19T12:30:06;98950.81;;;29.66;39.80
41202;BME280;26936;50.524;8.684;2022-08-19T12:32:32;98954.91;;;29.80;40.55
41202;BME280;26936;50.524;8.684;2022-08-19T12:34:57;98946.56;;;29.84;38.92
41202;BME280;26936;50.524;8.684;2022-08-19T12:37:23;98945.53;;;30.06;38.75
41202;BME280;26936;50.524;8.684;2022-08-19T12:39:48;98943.91;;;30.12;38.15
41202;BME280;26936;50.524;8.684;2022-08-19T12:42:14;98942.72;;;30.32;37.84
41202;BME280;26936;50.524;8.684;2022-08-19T12:44:41;98947.00;;;30.31;37.23
41202;BME280;26936;50.524;8.684;2022-08-19T12:47:08;98945.56;;;30.23;37.43
41202;BME280;26936;50.524;8.684;2022-08-19T12:49:34;98944.00;;;30.05;37.82
41202;BME280;26936;50.524;8.684;2022-08-19T12:52:03;98950.91;;;29.75;38.32
41202;BME280;26936;50.524;8.684;2022-08-19T12:54:29;98945.91;;;29.51;38.48
41202;BME280;26936;50.524;8.684;2022-08-19T12:56:56;98945.44;;;29.38;38.78
41202;BME280;26936;50.524;8.684;2022-08-19T12:59:21;98937.94;;;29.10;39.31
41202;BME280;26936;50.524;8.684;2022-08-19T13:01:47;98941.22;;;29.06;40.12
41202;BME280;26936;50.524;8.684;2022-08-19T13:04:12;98943.47;;;28.91;40.01
41202;BME280;26936;50.524;8.684;2022-08-19T13:06:38;98935.75;;;28.86;40.33
41202;BME280;26936;50.524;8.684;2022-08-19T13:09:04;98936.63;;;28.71;40.42
41202;BME280;26936;50.524;8.684;2022-08-19T13:11:29;98934.63;;;28.81;40.07
41202;BME280;26936;50.524;8.684;2022-08-19T13:13:58;98932.59;;;28.67;39.82
41202;BME280;26936;50.524;8.684;2022-08-19T13:16:24;98930.69;;;28.62;40.25